createdAt,value
2023-01-26T00:02:22.249Z,17.02
2023-01-26T00:05:27.747Z,17.67
2023-01-26T00:08:32.919Z,15.40
2023-01-26T00:11:38.236Z,18.48
2023-01-26T00:14:55.136Z,15.30
2023-01-26T00:18:00.412Z,17.77
2023-01-26T00:21:06.298Z,16.50
2023-01-26T00:24:11.625Z,16.95
2023-01-26T00:27:16.878Z,18.13
2023-01-26T00:30:24.669Z,20.15
2023-01-26T00:33:30.207Z,18.95
2023-01-26T00:36:37.992Z,14.50
2023-01-26T00:39:43.126Z,18.35
2023-01-26T00:42:48.858Z,19.15
2023-01-26T00:45:56.797Z,15.65
2023-01-26T00:49:02.907Z,19.60
2023-01-26T00:52:08.664Z,16.90
2023-01-26T00:55:14.311Z,16.67
2023-01-26T00:58:19.552Z,17.45
2023-01-26T01:01:27.572Z,18.42
2023-01-26T01:04:33.393Z,16.20
2023-01-26T01:07:39.058Z,18.83
2023-01-26T01:10:44.716Z,13.63
2023-01-26T01:13:51.018Z,15.68
2023-01-26T01:17:00.053Z,17.13
2023-01-26T01:20:06.222Z,17.75
2023-01-26T01:23:11.620Z,17.35
2023-01-26T01:26:17.851Z,16.52
2023-01-26T01:29:23.631Z,18.55
2023-01-26T01:32:32.109Z,15.48
2023-01-26T01:35:38.338Z,17.33
2023-01-26T01:38:44.184Z,22.60
2023-01-26T01:41:49.300Z,17.10
2023-01-26T01:45:09.610Z,18.40
2023-01-26T01:48:21.827Z,15.18
2023-01-26T01:51:31.024Z,17.02
2023-01-26T01:54:38.346Z,17.77
2023-01-26T01:57:47.778Z,20.88
2023-01-26T02:00:54.272Z,15.07
2023-01-26T02:04:03.136Z,15.25
2023-01-26T02:07:08.649Z,15.20
2023-01-26T02:10:24.511Z,15.65
2023-01-26T02:13:32.035Z,17.80
2023-01-26T02:16:40.116Z,14.30
2023-01-26T02:19:52.281Z,13.10
2023-01-26T02:22:59.557Z,14.45
2023-01-26T02:26:11.844Z,15.43
2023-01-26T02:29:17.403Z,18.17
2023-01-26T02:32:23.040Z,17.05
2023-01-26T02:35:28.717Z,15.45
2023-01-26T02:38:39.374Z,17.65
2023-01-26T02:42:00.152Z,16.90
2023-01-26T02:45:06.215Z,17.25
2023-01-26T02:48:11.306Z,17.50
2023-01-26T02:51:16.279Z,15.80
2023-01-26T02:54:34.425Z,14.68
2023-01-26T02:57:44.648Z,12.85
2023-01-26T03:00:49.764Z,17.27
2023-01-26T03:03:54.991Z,13.82
2023-01-26T03:07:00.904Z,15.30
2023-01-26T03:10:06.723Z,16.13
2023-01-26T03:13:14.731Z,15.77
2023-01-26T03:16:20.673Z,13.60
2023-01-26T03:19:38.772Z,15.85
2023-01-26T03:23:08.643Z,13.77
2023-01-26T03:26:26.150Z,14.80
2023-01-26T03:29:34.703Z,14.23
2023-01-26T03:32:40.979Z,14.02
2023-01-26T03:35:50.156Z,13.68
2023-01-26T03:38:55.379Z,15.15
2023-01-26T03:42:13.649Z,11.90
2023-01-26T03:45:34.034Z,12.50
2023-01-26T03:48:52.400Z,13.00
2023-01-26T03:52:10.033Z,16.27
2023-01-26T03:55:28.059Z,14.57
2023-01-26T03:58:33.375Z,16.58
2023-01-26T04:01:42.364Z,14.35
2023-01-26T04:05:01.077Z,14.82
2023-01-26T04:08:22.249Z,16.35
2023-01-26T04:11:29.192Z,15.90
2023-01-26T04:14:49.348Z,13.60
2023-01-26T04:18:20.445Z,14.80
2023-01-26T04:21:34.433Z,13.98
2023-01-26T04:24:44.862Z,16.92
2023-01-26T04:27:50.730Z,11.75
2023-01-26T04:30:56.915Z,14.93
2023-01-26T04:34:05.412Z,15.73
2023-01-26T04:40:22.935Z,17.45
2023-01-26T04:43:28.380Z,14.02
2023-01-26T04:46:34.520Z,18.08
2023-01-26T04:49:43.817Z,14.43
2023-01-26T04:52:50.194Z,15.85
2023-01-26T04:55:55.867Z,17.17
2023-01-26T04:59:02.165Z,18.30
2023-01-26T05:02:09.067Z,14.90
2023-01-26T05:05:17.591Z,15.80
2023-01-26T05:08:23.875Z,12.75
2023-01-26T05:11:29.400Z,15.48
2023-01-26T05:14:55.295Z,16.58
2023-01-26T05:18:22.187Z,14.35
2023-01-26T05:21:56.617Z,15.20
2023-01-26T05:25:02.042Z,14.80
2023-01-26T05:28:18.304Z,14.10
2023-01-26T05:31:23.958Z,17.63
2023-01-26T05:34:30.811Z,16.45
2023-01-26T05:37:38.497Z,19.05
2023-01-26T05:40:44.074Z,17.63
2023-01-26T05:43:49.730Z,16.00
2023-01-26T05:47:17.094Z,16.00
2023-01-26T05:50:26.234Z,14.75
2023-01-26T05:53:52.780Z,15.10
2023-01-26T05:56:58.307Z,17.83
2023-01-26T06:00:05.180Z,14.55
2023-01-26T06:03:19.332Z,17.10
2023-01-26T06:06:25.495Z,18.13
2023-01-26T06:09:42.293Z,16.98
2023-01-26T06:12:47.324Z,14.85
2023-01-26T06:16:14.504Z,16.02
2023-01-26T06:19:19.750Z,19.75
2023-01-26T06:22:31.183Z,17.88
2023-01-26T06:25:40.609Z,16.75
2023-01-26T06:28:46.849Z,20.15
2023-01-26T06:31:53.460Z,16.35
2023-01-26T06:34:59.710Z,17.48
2023-01-26T06:38:05.423Z,19.52
2023-01-26T06:41:13.933Z,16.48
2023-01-26T06:44:19.788Z,20.08
2023-01-26T06:47:25.096Z,17.75
2023-01-26T06:50:35.077Z,18.58
2023-01-26T06:53:41.578Z,19.42
2023-01-26T06:57:08.132Z,29.65
2023-01-26T07:00:26.126Z,17.70
2023-01-26T07:03:33.593Z,17.55
2023-01-26T07:06:38.846Z,19.05
2023-01-26T07:09:44.415Z,17.88
2023-01-26T07:12:52.255Z,16.67
2023-01-26T07:16:03.737Z,15.45
2023-01-26T07:19:09.437Z,20.77
2023-01-26T07:22:14.729Z,25.52
2023-01-26T07:25:20.232Z,20.95
2023-01-26T07:28:30.868Z,22.52
2023-01-26T07:31:36.251Z,19.10
2023-01-26T07:34:41.730Z,23.75
2023-01-26T07:37:47.017Z,20.42
2023-01-26T07:40:52.672Z,23.10
2023-01-26T07:44:00.681Z,22.25
2023-01-26T07:47:06.072Z,23.30
2023-01-26T07:50:13.390Z,23.38
2023-01-26T07:53:19.754Z,19.45
2023-01-26T07:56:24.971Z,20.85
2023-01-26T07:59:32.899Z,17.02
2023-01-26T08:02:38.354Z,18.35
2023-01-26T08:05:44.105Z,19.05
2023-01-26T08:08:51.382Z,18.27
2023-01-26T08:11:59.513Z,20.83
2023-01-26T08:15:07.768Z,15.95
2023-01-26T08:18:13.371Z,19.23
2023-01-26T08:21:19.248Z,19.33
2023-01-26T08:24:24.770Z,17.00
2023-01-26T08:27:30.369Z,18.00
2023-01-26T08:30:39.053Z,18.20
2023-01-26T08:33:45.190Z,21.80
2023-01-26T08:36:50.869Z,24.52
2023-01-26T08:39:56.253Z,21.35
2023-01-26T08:43:03.536Z,16.48
2023-01-26T08:46:11.857Z,17.55
2023-01-26T08:49:17.381Z,20.73
2023-01-26T08:52:22.690Z,20.65
2023-01-26T08:55:28.987Z,16.45
2023-01-26T08:58:34.117Z,16.17
2023-01-26T09:01:42.287Z,17.50
2023-01-26T09:07:56.031Z,17.50
2023-01-26T09:11:01.807Z,17.67
2023-01-26T09:14:07.461Z,14.45
2023-01-26T09:17:15.671Z,19.05
2023-01-26T09:20:21.669Z,15.98
2023-01-26T09:23:27.015Z,16.20
2023-01-26T09:26:32.823Z,25.05
2023-01-26T09:29:38.322Z,16.90
2023-01-26T09:32:46.347Z,16.73
2023-01-26T09:35:52.036Z,15.45
2023-01-26T09:38:58.072Z,15.90
2023-01-26T09:42:09.214Z,15.10
2023-01-26T09:45:23.204Z,13.93
2023-01-26T09:48:36.074Z,15.85
2023-01-26T09:51:42.595Z,21.50
2023-01-26T09:54:50.482Z,17.67
2023-01-26T09:57:57.953Z,19.63
2023-01-26T10:01:04.147Z,14.27
2023-01-26T10:04:15.760Z,15.88
2023-01-26T10:07:21.575Z,13.27
2023-01-26T10:10:31.337Z,13.88
2023-01-26T10:13:37.821Z,17.58
2023-01-26T10:16:43.516Z,14.55
2023-01-26T10:19:54.458Z,18.05
2023-01-26T10:23:02.633Z,17.30
2023-01-26T10:29:16.848Z,14.77
2023-01-26T10:32:22.568Z,15.30
2023-01-26T10:35:30.231Z,13.60
2023-01-26T10:38:42.551Z,16.00
2023-01-26T10:41:59.947Z,13.38
2023-01-26T10:45:07.278Z,16.13
2023-01-26T10:48:19.900Z,14.77
2023-01-26T10:51:30.314Z,13.13
2023-01-26T10:54:37.295Z,15.60
2023-01-26T10:57:42.979Z,17.00
2023-01-26T11:00:58.561Z,15.75
2023-01-26T11:04:07.924Z,17.15
2023-01-26T11:07:28.528Z,18.45
2023-01-26T11:10:34.969Z,15.68
2023-01-26T11:13:40.323Z,15.88
2023-01-26T11:16:49.073Z,14.23
2023-01-26T11:20:01.942Z,15.50
2023-01-26T11:23:16.111Z,18.33
2023-01-26T11:26:32.637Z,15.40
2023-01-26T11:29:50.108Z,14.40
2023-01-26T11:32:59.178Z,17.95
2023-01-26T11:36:07.313Z,15.85
2023-01-26T11:39:21.609Z,33.72
2023-01-26T11:42:29.018Z,16.33
2023-01-26T11:45:36.548Z,20.37
2023-01-26T11:48:47.495Z,20.48
2023-01-26T11:51:58.482Z,17.38
2023-01-26T11:55:18.884Z,23.20
2023-01-26T11:58:30.918Z,19.25
2023-01-26T12:01:38.781Z,25.45
2023-01-26T12:04:46.198Z,20.70
2023-01-26T12:07:55.689Z,20.67
2023-01-26T12:11:22.846Z,20.30
2023-01-26T12:14:33.517Z,24.27
2023-01-26T12:17:45.930Z,27.17
2023-01-26T12:20:54.315Z,20.73
2023-01-26T12:24:02.435Z,24.17
2023-01-26T12:27:09.432Z,22.38
2023-01-26T12:30:27.763Z,24.75
2023-01-26T12:33:34.457Z,21.88
2023-01-26T12:36:46.144Z,24.45
2023-01-26T12:39:56.636Z,26.23
2023-01-26T12:43:08.533Z,31.63
2023-01-26T12:46:16.819Z,26.30
2023-01-26T12:49:24.374Z,27.92
2023-01-26T12:52:31.757Z,21.00
2023-01-26T12:55:40.268Z,23.13
2023-01-26T13:01:53.697Z,25.60
2023-01-26T13:04:59.940Z,29.23
2023-01-26T13:08:20.389Z,43.85
2023-01-26T13:11:40.369Z,29.38
2023-01-26T13:15:03.501Z,36.70
2023-01-26T13:18:15.511Z,30.13
2023-01-26T13:21:29.546Z,32.28
2023-01-26T13:24:48.948Z,31.33
2023-01-26T13:27:58.983Z,29.65
2023-01-26T13:31:06.944Z,33.13
2023-01-26T13:34:18.319Z,29.48
2023-01-26T13:37:26.589Z,27.25
2023-01-26T13:40:33.965Z,29.67
2023-01-26T13:43:43.304Z,26.90
2023-01-26T13:46:48.792Z,28.50
2023-01-26T13:49:56.860Z,32.25
2023-01-26T13:53:02.066Z,28.33
2023-01-26T13:56:09.036Z,32.35
2023-01-26T13:59:15.175Z,27.70
2023-01-26T14:02:28.171Z,30.65
2023-01-26T14:05:36.873Z,27.35
2023-01-26T14:08:42.312Z,29.10
2023-01-26T14:11:47.843Z,29.42
2023-01-26T14:14:54.307Z,31.13
2023-01-26T14:18:00.602Z,27.20
2023-01-26T14:21:09.717Z,28.60
2023-01-26T14:24:15.468Z,25.05
2023-01-26T14:27:30.508Z,24.75
2023-01-26T14:30:37.430Z,24.58
2023-01-26T14:33:43.613Z,25.20
2023-01-26T14:36:51.553Z,26.73
2023-01-26T14:40:12.114Z,26.00
2023-01-26T14:43:17.915Z,27.60
2023-01-26T14:46:27.135Z,25.42
2023-01-26T14:49:42.981Z,28.35
2023-01-26T14:52:51.307Z,25.42
2023-01-26T14:55:56.813Z,25.65
2023-01-26T14:59:02.180Z,35.50
2023-01-26T15:02:16.643Z,25.73
2023-01-26T15:05:23.960Z,26.23
2023-01-26T15:08:31.725Z,25.75
2023-01-26T15:11:51.784Z,29.20
2023-01-26T15:14:59.504Z,23.30
2023-01-26T15:18:06.108Z,25.80
2023-01-26T15:21:15.576Z,27.67
2023-01-26T15:24:23.744Z,21.30
2023-01-26T15:27:33.250Z,24.00
2023-01-26T15:30:39.715Z,23.55
2023-01-26T15:33:49.890Z,22.58
2023-01-26T15:36:58.005Z,24.58
2023-01-26T15:40:06.525Z,32.13
2023-01-26T15:43:15.839Z,24.33
2023-01-26T15:46:21.433Z,22.40
2023-01-26T15:49:26.962Z,25.25
2023-01-26T15:52:33.209Z,28.70
2023-01-26T15:55:41.143Z,32.88
2023-01-26T15:58:46.722Z,25.08
2023-01-26T16:01:52.200Z,31.85
2023-01-26T16:04:57.645Z,25.88
2023-01-26T16:08:03.114Z,26.10
2023-01-26T16:11:12.749Z,28.10
2023-01-26T16:14:20.351Z,27.95
2023-01-26T16:17:25.874Z,27.83
2023-01-26T16:20:31.125Z,23.42
2023-01-26T16:23:36.542Z,22.98
2023-01-26T16:26:44.811Z,24.17
2023-01-26T16:29:50.322Z,22.73
2023-01-26T16:32:56.230Z,22.73
2023-01-26T16:36:01.373Z,27.52
2023-01-26T16:39:07.063Z,25.20
2023-01-26T16:42:20.042Z,24.33
2023-01-26T16:45:27.251Z,28.58
2023-01-26T16:48:35.042Z,28.48
2023-01-26T16:51:42.954Z,22.45
2023-01-26T16:54:50.102Z,24.35
2023-01-26T16:57:58.356Z,22.98
2023-01-26T17:01:03.875Z,22.13
2023-01-26T17:04:09.501Z,24.27
2023-01-26T17:07:15.272Z,24.20
2023-01-26T17:10:22.706Z,23.55
2023-01-26T17:13:31.738Z,22.58
2023-01-26T17:16:37.300Z,25.02
2023-01-26T17:19:42.899Z,26.27
2023-01-26T17:22:48.689Z,26.13
2023-01-26T17:26:00.450Z,22.05
2023-01-26T17:29:08.977Z,29.20
2023-01-26T17:32:14.602Z,26.30
2023-01-26T17:35:20.239Z,25.45
2023-01-26T17:38:25.570Z,24.80
2023-01-26T17:41:30.812Z,26.98
2023-01-26T17:44:39.112Z,24.80
2023-01-26T17:50:54.560Z,21.45
2023-01-26T17:54:00.930Z,28.48
2023-01-26T17:57:06.426Z,26.58
2023-01-26T18:00:16.275Z,25.90
2023-01-26T18:03:26.510Z,23.77
2023-01-26T18:06:32.016Z,26.30
2023-01-26T18:09:37.331Z,24.17
2023-01-26T18:12:42.637Z,22.30
2023-01-26T18:15:51.363Z,26.35
2023-01-26T18:18:57.603Z,25.75
2023-01-26T18:22:03.137Z,24.23
2023-01-26T18:25:09.117Z,23.77
2023-01-26T18:28:14.967Z,26.50
2023-01-26T18:31:23.723Z,24.48
2023-01-26T18:34:29.337Z,27.15
2023-01-26T18:37:34.636Z,22.42
2023-01-26T18:40:42.044Z,22.55
2023-01-26T18:43:48.828Z,24.25
2023-01-26T18:46:56.806Z,23.65
2023-01-26T18:50:02.295Z,19.23
2023-01-26T18:53:08.756Z,22.13
2023-01-26T18:56:15.347Z,20.80
2023-01-26T18:59:20.682Z,24.50
2023-01-26T19:02:33.881Z,25.27
2023-01-26T19:05:39.236Z,22.95
2023-01-26T19:08:44.757Z,24.33
2023-01-26T19:11:51.491Z,24.80
2023-01-26T19:14:57.187Z,25.83
2023-01-26T19:18:06.249Z,23.92
2023-01-26T19:21:12.974Z,22.02
2023-01-26T19:24:18.242Z,23.35
2023-01-26T19:27:23.970Z,23.42
2023-01-26T19:30:29.477Z,22.70
2023-01-26T19:33:37.731Z,22.67
2023-01-26T19:36:43.539Z,24.63
2023-01-26T19:39:49.996Z,20.27
2023-01-26T19:42:55.369Z,22.48
2023-01-26T19:46:00.864Z,23.48
2023-01-26T19:49:11.989Z,26.42
2023-01-26T19:52:17.850Z,22.35
2023-01-26T19:55:23.534Z,29.55
2023-01-26T19:58:29.451Z,20.75
2023-01-26T20:01:35.471Z,23.17
2023-01-26T20:04:45.430Z,24.15
2023-01-26T20:07:51.146Z,23.10
2023-01-26T20:10:56.576Z,24.80
2023-01-26T20:14:02.494Z,21.98
2023-01-26T20:17:07.720Z,22.95
2023-01-26T20:20:16.400Z,27.20
2023-01-26T20:23:21.587Z,21.02
2023-01-26T20:26:27.904Z,23.35
2023-01-26T20:29:33.346Z,26.17
2023-01-26T20:32:39.094Z,22.05
2023-01-26T20:35:47.375Z,25.92
2023-01-26T20:38:52.998Z,21.42
2023-01-26T20:41:58.881Z,24.92
2023-01-26T20:45:04.602Z,26.30
2023-01-26T20:48:10.695Z,21.63
2023-01-26T20:51:19.748Z,22.02
2023-01-26T20:54:24.873Z,21.88
2023-01-26T20:57:32.720Z,20.10
2023-01-26T21:00:38.839Z,22.13
2023-01-26T21:03:44.681Z,23.65
2023-01-26T21:06:54.435Z,21.63
2023-01-26T21:10:00.021Z,20.88
2023-01-26T21:13:05.426Z,25.10
2023-01-26T21:16:11.314Z,19.60
2023-01-26T21:19:17.184Z,21.77
2023-01-26T21:22:25.799Z,22.98
2023-01-26T21:25:31.138Z,24.88
2023-01-26T21:28:37.330Z,24.05
2023-01-26T21:31:43.027Z,20.15
2023-01-26T21:34:48.647Z,21.42
2023-01-26T21:37:56.341Z,22.55
2023-01-26T21:41:02.833Z,24.60
2023-01-26T21:44:09.241Z,24.67
2023-01-26T21:47:15.033Z,25.42
2023-01-26T21:50:40.620Z,20.10
2023-01-26T21:53:46.188Z,24.33
2023-01-26T21:56:51.799Z,25.38
2023-01-26T21:59:57.150Z,26.23
2023-01-26T22:03:02.798Z,26.67
2023-01-26T22:06:08.468Z,24.40
2023-01-26T22:09:17.336Z,25.83
2023-01-26T22:12:23.473Z,26.25
2023-01-26T22:15:28.701Z,24.13
2023-01-26T22:18:34.330Z,26.67
2023-01-26T22:21:39.747Z,22.80
2023-01-26T22:24:47.476Z,27.17
2023-01-26T22:27:52.944Z,25.88
2023-01-26T22:31:03.283Z,28.95
2023-01-26T22:34:08.905Z,28.00
2023-01-26T22:37:15.770Z,23.58
2023-01-26T22:40:24.242Z,24.38
2023-01-26T22:43:31.037Z,23.95
2023-01-26T22:46:36.989Z,23.90
2023-01-26T22:49:42.084Z,23.83
2023-01-26T22:52:47.699Z,25.02
2023-01-26T22:55:56.315Z,22.45
2023-01-26T22:59:02.255Z,21.90
2023-01-26T23:02:07.670Z,23.15
2023-01-26T23:05:13.377Z,29.70
2023-01-26T23:08:19.252Z,26.02
2023-01-26T23:11:27.606Z,23.77
2023-01-26T23:14:34.177Z,20.30
2023-01-26T23:17:39.764Z,25.35
2023-01-26T23:20:45.079Z,23.48
2023-01-26T23:23:50.547Z,22.80
2023-01-26T23:26:58.721Z,25.10
2023-01-26T23:30:04.081Z,23.35
2023-01-26T23:33:09.882Z,25.58
2023-01-26T23:36:15.668Z,22.17
2023-01-26T23:39:21.379Z,26.95
2023-01-26T23:42:29.653Z,22.45
2023-01-26T23:45:34.796Z,24.38
2023-01-26T23:48:41.157Z,20.98
2023-01-26T23:51:46.505Z,21.35
2023-01-26T23:54:51.637Z,23.40
2023-01-26T23:57:59.412Z,18.40
